createdAt,value
2023-02-21T00:01:19.582Z,10.20
2023-02-21T00:04:38.640Z,10.20
2023-02-21T00:07:55.837Z,10.20
2023-02-21T00:11:15.208Z,10.20
2023-02-21T00:14:32.430Z,10.20
2023-02-21T00:17:53.356Z,10.20
2023-02-21T00:21:10.303Z,10.20
2023-02-21T00:24:30.877Z,10.20
2023-02-21T00:27:47.844Z,10.20
2023-02-21T00:31:06.860Z,10.20
2023-02-21T00:34:26.757Z,10.20
2023-02-21T00:37:45.729Z,10.20
2023-02-21T00:41:02.824Z,10.30
2023-02-21T00:44:22.016Z,10.20
2023-02-21T00:47:39.508Z,10.20
2023-02-21T00:51:00.537Z,10.20
2023-02-21T00:54:17.748Z,10.30
2023-02-21T00:57:37.036Z,10.30
2023-02-21T01:00:54.007Z,10.30
2023-02-21T01:04:13.322Z,10.30
2023-02-21T01:07:32.328Z,10.30
2023-02-21T01:10:51.485Z,10.30
2023-02-21T01:14:08.445Z,10.30
2023-02-21T01:17:27.633Z,10.30
2023-02-21T01:20:44.673Z,10.20
2023-02-21T01:24:05.701Z,10.30
2023-02-21T01:27:22.707Z,10.30
2023-02-21T01:30:41.815Z,10.30
2023-02-21T01:33:58.955Z,10.30
2023-02-21T01:37:18.119Z,10.30
2023-02-21T01:40:42.432Z,10.30
2023-02-21T01:44:13.118Z,10.30
2023-02-21T01:47:30.251Z,10.30
2023-02-21T01:50:49.304Z,10.30
2023-02-21T01:54:08.453Z,10.30
2023-02-21T01:57:29.909Z,10.30
2023-02-21T02:00:47.056Z,10.30
2023-02-21T02:04:06.918Z,10.30
2023-02-21T02:07:25.026Z,10.30
2023-02-21T02:14:10.276Z,10.30
2023-02-21T02:17:29.372Z,10.30
2023-02-21T02:20:58.490Z,10.30
2023-02-21T02:24:42.448Z,10.30
2023-02-21T02:28:25.110Z,10.30
2023-02-21T02:32:01.844Z,10.30
2023-02-21T02:35:10.938Z,10.30
2023-02-21T02:38:27.231Z,10.30
2023-02-21T02:41:44.593Z,10.30
2023-02-21T02:44:54.622Z,10.30
2023-02-21T02:48:04.063Z,10.30
2023-02-21T02:51:16.157Z,10.30
2023-02-21T02:54:21.684Z,10.30
2023-02-21T02:57:29.282Z,10.30
2023-02-21T03:00:35.713Z,10.30
2023-02-21T03:03:55.776Z,10.30
2023-02-21T03:07:09.187Z,10.30
2023-02-21T03:10:21.200Z,10.30
2023-02-21T03:13:36.848Z,10.30
2023-02-21T03:16:49.278Z,10.30
2023-02-21T03:19:55.734Z,10.30
2023-02-21T03:23:05.745Z,10.30
2023-02-21T03:26:13.420Z,10.30
2023-02-21T03:29:23.526Z,10.30
2023-02-21T03:32:29.266Z,10.30
2023-02-21T03:35:35.364Z,10.30
2023-02-21T03:38:41.567Z,10.30
2023-02-21T03:41:47.533Z,10.30
2023-02-21T03:44:52.461Z,10.30
2023-02-21T03:47:59.099Z,10.30
2023-02-21T03:51:03.203Z,10.30
2023-02-21T03:54:16.575Z,10.30
2023-02-21T03:57:24.668Z,10.30
2023-02-21T04:00:30.582Z,10.30
2023-02-21T04:03:34.254Z,10.30
2023-02-21T04:06:42.743Z,10.30
2023-02-21T04:09:50.321Z,10.30
2023-02-21T04:13:03.340Z,10.30
2023-02-21T04:16:11.059Z,10.30
2023-02-21T04:19:17.634Z,10.30
2023-02-21T04:22:21.977Z,10.30
2023-02-21T04:25:30.060Z,10.30
2023-02-21T04:28:39.259Z,10.30
2023-02-21T04:31:45.329Z,10.30
2023-02-21T04:34:53.164Z,10.30
2023-02-21T04:37:59.082Z,10.30
2023-02-21T04:41:04.916Z,10.30
2023-02-21T04:44:10.916Z,10.30
2023-02-21T04:47:14.560Z,10.30
2023-02-21T04:50:20.934Z,10.30
2023-02-21T04:53:24.782Z,10.30
2023-02-21T04:56:32.670Z,10.30
2023-02-21T04:59:36.943Z,10.30
2023-02-21T05:02:44.607Z,10.30
2023-02-21T05:05:48.456Z,10.30
2023-02-21T05:08:54.384Z,10.30
2023-02-21T05:11:59.981Z,10.30
2023-02-21T05:15:07.070Z,10.30
2023-02-21T05:18:11.059Z,10.30
2023-02-21T05:21:18.332Z,10.30
2023-02-21T05:24:22.245Z,10.30
2023-02-21T05:27:30.140Z,10.30
2023-02-21T05:30:34.087Z,10.30
2023-02-21T05:33:39.988Z,10.30
2023-02-21T05:36:43.678Z,10.30
2023-02-21T05:39:49.966Z,10.30
2023-02-21T05:42:55.729Z,10.30
2023-02-21T05:46:01.617Z,10.30
2023-02-21T05:49:05.984Z,10.30
2023-02-21T05:52:14.364Z,10.30
2023-02-21T05:55:18.269Z,10.20
2023-02-21T05:58:26.074Z,10.20
2023-02-21T06:01:29.955Z,10.30
2023-02-21T06:04:35.910Z,10.30
2023-02-21T06:07:39.752Z,10.20
2023-02-21T06:10:45.702Z,10.20
2023-02-21T06:13:54.330Z,10.20
2023-02-21T06:17:01.796Z,10.20
2023-02-21T06:20:07.293Z,10.20
2023-02-21T06:23:13.145Z,10.20
2023-02-21T06:26:17.997Z,10.20
2023-02-21T06:29:25.781Z,10.20
2023-02-21T06:32:29.647Z,10.20
2023-02-21T06:35:35.535Z,10.20
2023-02-21T06:38:39.202Z,10.20
2023-02-21T06:41:45.044Z,10.20
2023-02-21T06:44:51.346Z,10.20
2023-02-21T06:47:57.172Z,10.20
2023-02-21T06:51:01.313Z,10.10
2023-02-21T06:54:08.365Z,10.20
2023-02-21T06:57:12.294Z,10.20
2023-02-21T07:00:20.872Z,10.10
2023-02-21T07:03:24.814Z,10.20
2023-02-21T07:06:32.794Z,10.20
2023-02-21T07:09:36.633Z,10.10
2023-02-21T07:12:42.448Z,10.20
2023-02-21T07:15:48.355Z,10.10
2023-02-21T07:18:54.404Z,10.20
2023-02-21T07:21:57.988Z,10.20
2023-02-21T07:25:04.572Z,10.10
2023-02-21T07:28:08.838Z,10.10
2023-02-21T07:31:19.262Z,10.10
2023-02-21T07:34:23.708Z,10.10
2023-02-21T07:37:29.559Z,10.10
2023-02-21T07:40:33.388Z,10.10
2023-02-21T07:43:47.003Z,10.10
2023-02-21T07:46:52.807Z,10.10
2023-02-21T07:49:58.865Z,10.10
2023-02-21T07:53:02.684Z,10.10
2023-02-21T07:56:08.921Z,10.10
2023-02-21T07:59:12.760Z,10.10
2023-02-21T08:02:20.627Z,10.20
2023-02-21T08:05:24.737Z,10.20
2023-02-21T08:08:30.727Z,10.20
2023-02-21T08:11:36.147Z,10.10
2023-02-21T08:14:42.026Z,10.20
2023-02-21T08:17:49.601Z,10.10
2023-02-21T08:20:57.230Z,10.10
2023-02-21T08:24:01.057Z,10.10
2023-02-21T08:27:07.150Z,10.10
2023-02-21T08:30:14.020Z,10.20
2023-02-21T08:33:21.808Z,10.10
2023-02-21T08:36:33.215Z,10.10
2023-02-21T08:39:39.023Z,10.10
2023-02-21T08:42:43.236Z,10.10
2023-02-21T08:45:49.184Z,10.10
2023-02-21T08:48:54.822Z,10.10
2023-02-21T08:52:00.962Z,10.20
2023-02-21T08:55:04.610Z,10.10
2023-02-21T08:58:13.079Z,10.20
2023-02-21T09:01:18.091Z,10.20
2023-02-21T09:04:27.262Z,10.20
2023-02-21T09:07:32.830Z,10.20
2023-02-21T09:10:46.594Z,10.20
2023-02-21T09:13:52.310Z,10.10
2023-02-21T09:16:58.538Z,10.20
2023-02-21T09:20:06.900Z,10.20
2023-02-21T09:23:14.826Z,10.20
2023-02-21T09:26:18.634Z,10.20
2023-02-21T09:29:26.556Z,10.20
2023-02-21T09:32:32.157Z,10.20
2023-02-21T09:35:40.160Z,10.30
2023-02-21T09:38:44.296Z,10.30
2023-02-21T09:41:51.256Z,10.30
2023-02-21T09:44:55.080Z,10.30
2023-02-21T09:48:05.893Z,10.30
2023-02-21T09:51:14.767Z,10.30
2023-02-21T09:54:26.500Z,10.30
2023-02-21T09:57:30.329Z,10.30
2023-02-21T10:00:38.245Z,10.40
2023-02-21T10:03:49.021Z,10.40
2023-02-21T10:07:01.286Z,10.40
2023-02-21T10:10:13.380Z,10.40
2023-02-21T10:13:40.843Z,10.40
2023-02-21T10:16:50.168Z,10.40
2023-02-21T10:19:59.729Z,10.40
2023-02-21T10:23:14.393Z,10.50
2023-02-21T10:26:26.151Z,10.50
2023-02-21T10:29:41.474Z,10.50
2023-02-21T10:32:47.888Z,10.50
2023-02-21T10:35:54.439Z,10.50
2023-02-21T10:39:13.553Z,10.60
2023-02-21T10:42:32.921Z,10.60
2023-02-21T10:45:45.506Z,10.60
2023-02-21T10:48:54.046Z,10.60
2023-02-21T10:52:13.115Z,10.60
2023-02-21T10:55:32.327Z,10.70
2023-02-21T10:58:39.738Z,10.70
2023-02-21T11:01:46.270Z,10.70
2023-02-21T11:04:55.351Z,10.70
2023-02-21T11:08:01.687Z,10.70
2023-02-21T11:11:10.322Z,10.70
2023-02-21T11:14:26.650Z,10.70
2023-02-21T11:17:33.808Z,10.80
2023-02-21T11:20:37.634Z,10.80
2023-02-21T11:23:49.958Z,10.80
2023-02-21T11:26:55.960Z,10.80
2023-02-21T11:30:05.536Z,10.80
2023-02-21T11:33:10.507Z,10.80
2023-02-21T11:36:20.568Z,10.90
2023-02-21T11:39:27.479Z,10.90
2023-02-21T11:42:35.692Z,10.90
2023-02-21T11:45:42.271Z,11.00
2023-02-21T11:48:58.936Z,11.00
2023-02-21T11:52:06.333Z,11.00
2023-02-21T11:55:17.110Z,11.00
2023-02-21T11:58:28.680Z,11.00
2023-02-21T12:01:40.273Z,11.00
2023-02-21T12:04:57.951Z,11.00
2023-02-21T12:08:24.578Z,11.00
2023-02-21T12:11:38.354Z,11.00
2023-02-21T12:15:00.539Z,11.00
2023-02-21T12:18:24.291Z,11.00
2023-02-21T12:22:01.493Z,11.00
2023-02-21T12:25:15.552Z,11.00
2023-02-21T12:28:34.546Z,11.10
2023-02-21T12:32:01.095Z,11.10
2023-02-21T12:35:34.026Z,11.10
2023-02-21T12:38:44.890Z,11.10
2023-02-21T12:42:12.948Z,11.10
2023-02-21T12:45:31.352Z,11.10
2023-02-21T12:48:43.990Z,11.10
2023-02-21T12:51:51.983Z,11.10
2023-02-21T12:55:04.088Z,11.10
2023-02-21T12:58:16.361Z,11.10
2023-02-21T13:01:26.813Z,11.10
2023-02-21T13:04:45.915Z,11.10
2023-02-21T13:07:57.167Z,11.10
2023-02-21T13:11:12.625Z,11.10
2023-02-21T13:14:24.730Z,11.10
2023-02-21T13:17:29.158Z,11.10
2023-02-21T13:20:41.472Z,11.10
2023-02-21T13:23:52.017Z,11.10
2023-02-21T13:27:19.110Z,11.10
2023-02-21T13:30:30.225Z,11.10
2023-02-21T13:33:43.408Z,11.10
2023-02-21T13:36:49.486Z,11.10
2023-02-21T13:40:06.848Z,11.00
2023-02-21T13:43:15.206Z,11.10
2023-02-21T13:46:57.275Z,11.00
2023-02-21T13:50:01.286Z,11.00
2023-02-21T13:53:17.830Z,11.00
2023-02-21T13:56:21.861Z,11.10
2023-02-21T13:59:37.820Z,11.00
2023-02-21T14:02:56.528Z,11.00
2023-02-21T14:06:27.856Z,11.00
2023-02-21T14:09:37.375Z,11.10
2023-02-21T14:12:45.314Z,11.10
2023-02-21T14:15:52.183Z,11.10
2023-02-21T14:19:01.224Z,11.10
2023-02-21T14:22:11.324Z,11.10
2023-02-21T14:25:23.980Z,11.10
2023-02-21T14:29:06.537Z,11.10
2023-02-21T14:32:35.548Z,11.10
2023-02-21T14:35:47.416Z,11.10
2023-02-21T14:38:55.399Z,11.10
2023-02-21T14:42:38.218Z,11.10
2023-02-21T14:46:00.245Z,11.10
2023-02-21T14:49:42.967Z,11.10
2023-02-21T14:53:30.285Z,11.10
2023-02-21T14:56:48.779Z,11.10
2023-02-21T15:00:19.376Z,11.10
2023-02-21T15:03:28.163Z,11.10
2023-02-21T15:06:36.084Z,11.10
2023-02-21T15:09:40.033Z,11.10
2023-02-21T15:12:49.134Z,11.10
2023-02-21T15:16:01.589Z,11.10
2023-02-21T15:19:11.838Z,11.10
2023-02-21T15:22:18.850Z,11.10
2023-02-21T15:25:25.118Z,11.10
2023-02-21T15:28:31.403Z,11.10
2023-02-21T15:31:43.352Z,11.10
2023-02-21T15:34:48.978Z,11.10
2023-02-21T15:37:56.697Z,11.00
2023-02-21T15:41:05.026Z,11.00
2023-02-21T15:44:15.864Z,11.00
2023-02-21T15:47:24.094Z,11.00
2023-02-21T15:50:37.049Z,11.00
2023-02-21T15:53:40.979Z,11.00
2023-02-21T15:56:47.419Z,11.00
2023-02-21T16:00:17.618Z,11.00
2023-02-21T16:03:46.775Z,11.00
2023-02-21T16:06:53.806Z,11.00
2023-02-21T16:10:02.069Z,10.90
2023-02-21T16:13:05.967Z,10.90
2023-02-21T16:16:12.446Z,10.90
2023-02-21T16:19:18.439Z,10.90
2023-02-21T16:22:43.021Z,10.90
2023-02-21T16:26:01.150Z,10.90
2023-02-21T16:29:07.289Z,10.80
2023-02-21T16:32:18.821Z,10.80
2023-02-21T16:35:27.585Z,10.80
2023-02-21T16:38:31.570Z,10.80
2023-02-21T16:41:37.879Z,10.80
2023-02-21T16:44:44.268Z,10.70
2023-02-21T16:47:52.359Z,10.70
2023-02-21T16:50:58.154Z,10.70
2023-02-21T16:54:04.621Z,10.70
2023-02-21T16:57:09.419Z,10.70
2023-02-21T17:00:16.784Z,10.70
2023-02-21T17:03:21.260Z,10.70
2023-02-21T17:06:30.154Z,10.70
2023-02-21T17:09:38.520Z,10.70
2023-02-21T17:12:44.723Z,10.70
2023-02-21T17:15:48.898Z,10.60
2023-02-21T17:18:55.081Z,10.60
2023-02-21T17:22:01.484Z,10.60
2023-02-21T17:25:08.450Z,10.60
2023-02-21T17:28:12.295Z,10.60
2023-02-21T17:31:19.447Z,10.60
2023-02-21T17:34:23.900Z,10.60
2023-02-21T17:37:32.484Z,10.60
2023-02-21T17:40:36.374Z,10.60
2023-02-21T17:43:42.324Z,10.60
2023-02-21T17:46:48.103Z,10.60
2023-02-21T17:49:54.001Z,10.60
2023-02-21T17:52:59.503Z,10.60
2023-02-21T17:56:05.732Z,10.60
2023-02-21T17:59:09.595Z,10.50
2023-02-21T18:02:18.621Z,10.50
2023-02-21T18:05:23.064Z,10.50
2023-02-21T18:08:30.821Z,10.50
2023-02-21T18:11:35.575Z,10.50
2023-02-21T18:14:41.409Z,10.50
2023-02-21T18:17:45.239Z,10.50
2023-02-21T18:20:51.630Z,10.50
2023-02-21T18:23:57.367Z,10.50
2023-02-21T18:27:03.204Z,10.50
2023-02-21T18:30:08.164Z,10.50
2023-02-21T18:33:14.615Z,10.50
2023-02-21T18:36:18.756Z,10.50
2023-02-21T18:39:26.943Z,10.50
2023-02-21T18:42:30.962Z,10.50
2023-02-21T18:45:37.722Z,10.50
2023-02-21T18:48:44.565Z,10.50
2023-02-21T18:51:50.572Z,10.50
2023-02-21T18:55:02.567Z,10.50
2023-02-21T18:58:10.198Z,10.50
2023-02-21T19:01:17.943Z,10.50
2023-02-21T19:04:24.093Z,10.40
2023-02-21T19:07:27.839Z,10.40
2023-02-21T19:10:35.753Z,10.40
2023-02-21T19:13:39.897Z,10.40
2023-02-21T19:16:45.716Z,10.40
2023-02-21T19:19:49.585Z,10.40
2023-02-21T19:22:56.465Z,10.40
2023-02-21T19:26:02.245Z,10.40
2023-02-21T19:29:08.060Z,10.40
2023-02-21T19:32:12.001Z,10.40
2023-02-21T19:35:17.989Z,10.40
2023-02-21T19:38:21.594Z,10.40
2023-02-21T19:41:29.342Z,10.40
2023-02-21T19:44:33.485Z,10.30
2023-02-21T19:47:39.301Z,10.30
2023-02-21T19:50:43.259Z,10.30
2023-02-21T19:53:49.278Z,10.30
2023-02-21T19:56:55.173Z,10.30
2023-02-21T20:00:01.056Z,10.30
2023-02-21T20:03:05.013Z,10.30
2023-02-21T20:06:10.972Z,10.30
2023-02-21T20:09:15.031Z,10.30
2023-02-21T20:12:23.743Z,10.30
2023-02-21T20:15:27.590Z,10.30
2023-02-21T20:18:33.387Z,10.30
2023-02-21T20:21:37.856Z,10.30
2023-02-21T20:24:45.339Z,10.30
2023-02-21T20:27:51.231Z,10.30
2023-02-21T20:30:57.864Z,10.30
2023-02-21T20:34:02.370Z,10.30
2023-02-21T20:37:10.420Z,10.30
2023-02-21T20:40:15.628Z,10.30
2023-02-21T20:43:24.853Z,10.20
2023-02-21T20:46:30.014Z,10.20
2023-02-21T20:49:36.237Z,10.20
2023-02-21T20:52:41.366Z,10.30
2023-02-21T20:55:47.672Z,10.30
2023-02-21T20:58:54.120Z,10.20
2023-02-21T21:02:00.597Z,10.30
2023-02-21T21:05:09.445Z,10.20
2023-02-21T21:08:16.308Z,10.20
2023-02-21T21:11:20.999Z,10.20
2023-02-21T21:14:29.369Z,10.20
2023-02-21T21:17:33.288Z,10.20
2023-02-21T21:20:40.731Z,10.20
2023-02-21T21:23:44.598Z,10.20
2023-02-21T21:26:52.544Z,10.20
2023-02-21T21:29:58.588Z,10.20
2023-02-21T21:33:06.812Z,10.20
2023-02-21T21:36:11.345Z,10.20
2023-02-21T21:39:21.289Z,10.20
2023-02-21T21:42:27.406Z,10.20
2023-02-21T21:45:43.505Z,10.20
2023-02-21T21:48:47.355Z,10.20
2023-02-21T21:51:54.966Z,10.20
2023-02-21T21:54:59.212Z,10.20
2023-02-21T21:58:09.875Z,10.20
2023-02-21T22:01:16.036Z,10.20
2023-02-21T22:04:22.220Z,10.20
2023-02-21T22:07:25.795Z,10.20
2023-02-21T22:10:31.751Z,10.20
2023-02-21T22:13:35.369Z,10.20
2023-02-21T22:16:44.791Z,10.20
2023-02-21T22:19:49.918Z,10.10
2023-02-21T22:22:58.148Z,10.10
2023-02-21T22:26:02.020Z,10.10
2023-02-21T22:29:08.186Z,10.10
2023-02-21T22:32:15.706Z,10.10
2023-02-21T22:35:22.138Z,10.10
2023-02-21T22:38:26.173Z,10.10
2023-02-21T22:41:32.786Z,10.10
2023-02-21T22:44:37.028Z,10.10
2023-02-21T22:47:45.401Z,10.10
2023-02-21T22:50:49.543Z,10.10
2023-02-21T22:53:58.138Z,10.10
2023-02-21T22:57:02.387Z,10.10
2023-02-21T23:00:18.528Z,10.10
2023-02-21T23:03:28.024Z,10.10
2023-02-21T23:06:34.015Z,10.10
2023-02-21T23:09:38.011Z,10.10
2023-02-21T23:12:46.572Z,10.10
2023-02-21T23:15:55.824Z,10.10
2023-02-21T23:19:06.174Z,10.10
2023-02-21T23:22:10.475Z,10.00
2023-02-21T23:25:22.362Z,10.10
2023-02-21T23:28:28.056Z,10.10
2023-02-21T23:31:33.899Z,10.10
2023-02-21T23:34:42.055Z,10.10
2023-02-21T23:37:52.567Z,10.10
2023-02-21T23:40:58.430Z,10.10
2023-02-21T23:44:04.308Z,10.00
2023-02-21T23:47:08.114Z,10.00
2023-02-21T23:50:18.565Z,10.00
2023-02-21T23:53:25.719Z,10.00
2023-02-21T23:56:31.495Z,10.00
2023-02-21T23:59:36.015Z,10.00
